Time;durP1;ratioP1;P1;durP2;ratioP2;P2;SDS_P1;SDS_P2;PMS_P1;PMS_P2;Temp;Humidity;BMP_temperature;BMP_pressure;BME280_temperature;BME280_humidity;BME280_pressure;Samples;Min_cycle;Max_cycle;Signal;HPM_P1;HPM_P2
2021/04/29 00:01:23;;;;;;;1.10;0.95;;;;;;;-148.56;100.00;61375.16;4971555;28;20045;-29
2021/04/29 00:04:47;;;;;;;1.40;1.00;;;;;;;-148.56;100.00;61375.16;4981938;28;20037;-29
2021/04/29 00:08:10;;;;;;;2.35;1.25;;;;;;;-148.56;100.00;61375.16;4976091;28;20057;-31
2021/04/29 00:11:34;;;;;;;3.83;1.30;;;;;;;-148.56;100.00;61375.16;4975302;28;20046;-28
2021/04/29 00:14:58;;;;;;;1.48;0.90;;;;;;;-148.56;100.00;61375.16;4973230;28;20044;-27
2021/04/29 00:18:22;;;;;;;1.35;1.13;;;;;;;-148.56;100.00;61375.16;4974146;28;20241;-30
2021/04/29 00:21:46;;;;;;;5.35;1.30;;;;;;;-148.56;100.00;61375.16;4984201;28;20040;-30
2021/04/29 00:25:10;;;;;;;1.95;1.08;;;;;;;-148.56;100.00;61375.16;4980776;28;20092;-30
2021/04/29 00:28:34;;;;;;;2.08;1.15;;;;;;;-148.56;100.00;61375.16;4983180;28;20050;-30
2021/04/29 00:31:58;;;;;;;1.95;1.15;;;;;;;-148.56;100.00;61375.16;4977560;28;20034;-31
2021/04/29 00:35:22;;;;;;;1.45;1.17;;;;;;;-148.56;100.00;61375.16;4974449;28;20048;-27
2021/04/29 00:38:46;;;;;;;1.80;1.00;;;;;;;-148.56;100.00;61375.16;4979331;28;20022;-32
2021/04/29 00:42:09;;;;;;;1.42;1.00;;;;;;;-148.56;100.00;61375.16;4985843;28;20034;-33
2021/04/29 00:45:33;;;;;;;1.42;1.10;;;;;;;-148.56;100.00;61375.16;4981188;28;21104;-28
2021/04/29 00:48:57;;;;;;;3.10;0.98;;;;;;;-148.56;100.00;61375.16;4977595;28;20042;-32
2021/04/29 00:52:21;;;;;;;1.00;0.90;;;;;;;-148.56;100.00;61375.16;4982982;28;20129;-29
2021/04/29 00:55:45;;;;;;;1.98;1.17;;;;;;;-148.56;100.00;61375.16;4982692;28;20022;-30
2021/04/29 00:59:09;;;;;;;1.42;0.98;;;;;;;-148.56;100.00;61375.16;4982785;28;20030;-34
2021/04/29 01:02:33;;;;;;;1.20;1.10;;;;;;;-148.56;100.00;61375.16;4990970;28;20037;-28
2021/04/29 01:05:58;;;;;;;0.95;0.90;;;;;;;-148.56;100.00;61375.16;4976463;28;20026;-31
2021/04/29 01:09:33;;;;;;;1.13;1.02;;;;;;;-148.56;100.00;61375.16;4980644;28;20038;-29
2021/04/29 01:13:12;;;;;;;1.13;1.00;;;;;;;-148.56;100.00;61375.16;4975647;28;20027;-30
2021/04/29 01:16:40;;;;;;;2.72;0.98;;;;;;;-148.56;100.00;61375.16;4981232;28;20034;-35
2021/04/29 01:20:05;;;;;;;2.13;1.00;;;;;;;-148.56;100.00;61375.16;4980353;28;20403;-30
2021/04/29 01:23:35;;;;;;;3.72;1.20;;;;;;;-148.56;100.00;61375.16;4970291;28;20647;-28
2021/04/29 01:27:01;;;;;;;1.88;1.10;;;;;;;-148.56;100.00;61375.16;4981812;28;20038;-31
2021/04/29 01:30:28;;;;;;;1.52;1.20;;;;;;;-148.56;100.00;61375.16;4983555;28;20033;-32
2021/04/29 01:33:52;;;;;;;2.22;1.00;;;;;;;-148.56;100.00;61375.16;4983759;28;20041;-32
2021/04/29 01:37:17;;;;;;;1.85;1.10;;;;;;;-148.56;100.00;61375.16;4979070;28;20645;-30
2021/04/29 01:40:41;;;;;;;1.05;0.70;;;;;;;-148.56;100.00;61375.16;4960687;28;20057;-31
2021/04/29 01:44:05;;;;;;;3.92;1.02;;;;;;;-148.56;100.00;61375.16;4988772;28;20608;-30
2021/04/29 01:47:31;;;;;;;2.25;1.13;;;;;;;-148.56;100.00;61375.16;4978343;28;20041;-28
2021/04/29 01:50:56;;;;;;;1.75;1.02;;;;;;;-148.56;100.00;61375.16;4989618;28;20113;-30
2021/04/29 01:54:21;;;;;;;1.35;0.82;;;;;;;-148.56;100.00;61375.16;4990756;28;20031;-29
2021/04/29 01:57:44;;;;;;;4.68;1.35;;;;;;;-148.56;100.00;61375.16;4975485;28;20077;-27
2021/04/29 02:01:08;;;;;;;1.50;0.98;;;;;;;-148.56;100.00;61375.16;4963407;28;20614;-31
2021/04/29 02:04:32;;;;;;;2.75;0.80;;;;;;;-148.56;100.00;61375.16;4983685;28;20061;-30
2021/04/29 02:07:57;;;;;;;0.70;0.63;;;;;;;-148.56;100.00;61375.16;4977431;28;20776;-23
2021/04/29 02:11:21;;;;;;;1.00;0.85;;;;;;;-148.56;100.00;61375.16;4975040;28;20394;-31
2021/04/29 02:14:47;;;;;;;2.47;1.20;;;;;;;-148.56;100.00;61375.16;4984792;28;20492;-29
2021/04/29 02:18:22;;;;;;;1.20;0.88;;;;;;;-148.56;100.00;61375.16;4970961;28;20030;-29
2021/04/29 02:21:46;;;;;;;1.17;0.80;;;;;;;-148.56;100.00;61375.16;4976299;28;20038;-26
2021/04/29 02:25:11;;;;;;;2.13;0.90;;;;;;;-148.56;100.00;61375.16;4963428;28;20109;-28
2021/04/29 02:28:35;;;;;;;2.00;1.10;;;;;;;-148.56;100.00;61375.16;4973007;28;20451;-31
2021/04/29 02:32:00;;;;;;;2.10;0.77;;;;;;;-148.56;100.00;61375.16;4967498;28;20035;-26
2021/04/29 02:35:24;;;;;;;1.67;1.20;;;;;;;-148.56;100.00;61375.16;4974521;28;20686;-25
2021/04/29 02:38:48;;;;;;;1.25;0.88;;;;;;;-148.56;100.00;61375.16;4979263;28;20036;-28
2021/04/29 02:42:12;;;;;;;2.03;1.00;;;;;;;-148.56;100.00;61375.16;4981499;28;20026;-27
2021/04/29 02:45:36;;;;;;;1.52;0.70;;;;;;;-148.56;100.00;61375.16;4982897;28;20033;-30
2021/04/29 02:49:00;;;;;;;1.60;0.95;;;;;;;-148.56;100.00;61375.16;4974018;28;20030;-31
2021/04/29 02:52:24;;;;;;;2.25;0.80;;;;;;;-148.56;100.00;61375.16;4979725;28;20033;-30
2021/04/29 02:55:48;;;;;;;3.17;0.90;;;;;;;-148.56;100.00;61375.16;4986831;28;20026;-31
2021/04/29 02:59:12;;;;;;;2.40;1.05;;;;;;;-148.56;100.00;61375.16;4980389;28;20030;-33
2021/04/29 03:02:39;;;;;;;1.50;0.70;;;;;;;-148.56;100.00;61375.16;4976836;28;20431;-33
2021/04/29 03:06:03;;;;;;;1.67;1.05;;;;;;;-148.56;100.00;61375.16;4976412;28;20057;-33
2021/04/29 03:09:27;;;;;;;0.80;0.80;;;;;;;-148.56;100.00;61375.16;4984049;28;20088;-30
2021/04/29 03:12:51;;;;;;;1.08;0.60;;;;;;;-148.56;100.00;61375.16;4985038;28;20041;-29
2021/04/29 03:16:15;;;;;;;3.72;1.00;;;;;;;-148.56;100.00;61375.16;4982130;28;20065;-27
2021/04/29 03:19:39;;;;;;;2.30;0.80;;;;;;;-148.56;100.00;61375.16;4972860;28;20044;-31
2021/04/29 03:23:03;;;;;;;2.47;0.80;;;;;;;-148.56;100.00;61375.16;4979145;28;20592;-29
2021/04/29 03:26:26;;;;;;;1.58;0.80;;;;;;;-148.56;100.00;61375.16;4981801;28;20499;-31
2021/04/29 03:29:50;;;;;;;1.60;1.05;;;;;;;-148.56;100.00;61375.16;4979388;28;20128;-33
2021/04/29 03:33:14;;;;;;;3.67;0.98;;;;;;;-148.56;100.00;61375.16;4982519;28;20126;-29
2021/04/29 03:36:38;;;;;;;3.60;0.93;;;;;;;-148.56;100.00;61375.16;4980268;28;20374;-30
2021/04/29 03:40:02;;;;;;;3.08;0.80;;;;;;;-148.56;100.00;61375.16;4978292;28;20034;-31
2021/04/29 03:43:26;;;;;;;3.28;0.93;;;;;;;-148.56;100.00;61375.16;4981795;28;20037;-27
2021/04/29 03:46:50;;;;;;;4.20;0.82;;;;;;;-148.56;100.00;61375.16;4974370;28;20038;-29
2021/04/29 03:50:14;;;;;;;1.10;0.70;;;;;;;-148.56;100.00;61375.16;4978726;28;21910;-31
2021/04/29 03:53:38;;;;;;;2.05;0.98;;;;;;;-148.56;100.00;61375.16;4982593;28;20038;-28
2021/04/29 03:57:02;;;;;;;2.17;0.90;;;;;;;-148.56;100.00;61375.16;4979194;28;20060;-31
2021/04/29 04:00:26;;;;;;;1.05;0.70;;;;;;;-148.56;100.00;61375.16;4977437;28;20562;-29
2021/04/29 04:03:50;;;;;;;1.13;0.68;;;;;;;-148.56;100.00;61375.16;4983594;28;20080;-30
2021/04/29 04:07:14;;;;;;;0.60;0.60;;;;;;;-148.56;100.00;61375.16;4972166;28;20046;-31
2021/04/29 04:10:37;;;;;;;2.08;1.23;;;;;;;-148.56;100.00;61375.16;4976125;28;20038;-30
2021/04/29 04:14:02;;;;;;;3.47;0.70;;;;;;;-148.56;100.00;61375.16;4981048;28;20574;-29
2021/04/29 04:17:26;;;;;;;0.60;0.52;;;;;;;-148.56;100.00;61375.16;4980616;28;20034;-32
2021/04/29 04:20:50;;;;;;;1.35;0.80;;;;;;;-148.56;100.00;61375.16;4984036;28;20069;-27
2021/04/29 04:24:15;;;;;;;1.63;0.70;;;;;;;-148.56;100.00;61375.16;4982667;28;20041;-30
2021/04/29 04:27:39;;;;;;;1.70;0.70;;;;;;;-148.56;100.00;61375.16;4984887;28;20108;-29
2021/04/29 04:31:06;;;;;;;3.15;0.50;;;;;;;-148.56;100.00;61375.16;4984294;28;20034;-32
2021/04/29 04:34:30;;;;;;;1.30;0.63;;;;;;;-148.56;100.00;61375.16;4988063;28;20080;-26
2021/04/29 04:37:53;;;;;;;1.10;0.70;;;;;;;-148.56;100.00;61375.16;4985728;28;20038;-29
2021/04/29 04:41:17;;;;;;;1.20;0.50;;;;;;;-148.56;100.00;61375.16;4973240;28;20025;-30
2021/04/29 04:44:41;;;;;;;3.88;0.68;;;;;;;-148.56;100.00;61375.16;4979414;28;20285;-30
2021/04/29 04:48:05;;;;;;;1.00;0.50;;;;;;;-148.56;100.00;61375.16;4983426;28;20034;-28
2021/04/29 04:51:29;;;;;;;1.42;0.60;;;;;;;-148.56;100.00;61375.16;4982130;28;20128;-27
2021/04/29 04:54:53;;;;;;;0.93;0.60;;;;;;;-148.56;100.00;61375.16;4983124;28;20088;-31
2021/04/29 04:58:17;;;;;;;1.60;0.63;;;;;;;-148.56;100.00;61375.16;4994270;28;20034;-30
2021/04/29 05:01:42;;;;;;;2.42;0.60;;;;;;;-148.56;100.00;61375.16;4983818;28;20062;-26
2021/04/29 05:05:06;;;;;;;2.17;0.70;;;;;;;-148.56;100.00;61375.16;4988864;28;20392;-29
2021/04/29 05:08:30;;;;;;;1.30;0.90;;;;;;;-148.56;100.00;61375.16;4979692;28;20133;-31
2021/04/29 05:11:54;;;;;;;1.23;0.60;;;;;;;-148.56;100.00;61375.16;4976193;28;20900;-31
2021/04/29 05:15:18;;;;;;;2.45;0.50;;;;;;;-148.56;100.00;61375.16;4983719;28;20038;-33
2021/04/29 05:18:42;;;;;;;1.00;0.57;;;;;;;-148.56;100.00;61375.16;4978511;28;20053;-28
2021/04/29 05:22:06;;;;;;;1.58;0.50;;;;;;;-148.56;100.00;61375.16;4984570;28;20025;-31
2021/04/29 05:25:30;;;;;;;0.73;0.60;;;;;;;-148.56;100.00;61375.16;4981973;28;20307;-27
2021/04/29 05:28:57;;;;;;;1.10;0.50;;;;;;;-148.56;100.00;61375.16;4976584;28;20034;-31
2021/04/29 05:32:21;;;;;;;1.17;0.50;;;;;;;-148.56;100.00;61375.16;4984379;28;20081;-30
2021/04/29 05:35:44;;;;;;;1.13;0.60;;;;;;;-148.56;100.00;61375.16;4985772;28;20037;-31
2021/04/29 05:39:08;;;;;;;0.93;0.50;;;;;;;-148.56;100.00;61375.16;4981175;28;20026;-31
2021/04/29 05:42:32;;;;;;;1.50;0.50;;;;;;;-148.56;100.00;61375.16;4981017;28;20039;-31
2021/04/29 05:45:56;;;;;;;0.50;0.50;;;;;;;-148.56;100.00;61375.16;4976625;28;20827;-26
2021/04/29 05:49:20;;;;;;;0.73;0.50;;;;;;;-148.56;100.00;61375.16;4982934;28;20105;-28
2021/04/29 05:52:44;;;;;;;1.30;0.60;;;;;;;-148.56;100.00;61375.16;4980865;28;20035;-30
2021/04/29 05:56:08;;;;;;;0.80;0.40;;;;;;;-148.56;100.00;61375.16;4980349;28;20632;-30
2021/04/29 05:59:32;;;;;;;0.70;0.50;;;;;;;-148.56;100.00;61375.16;4966345;28;20087;-28
2021/04/29 06:02:56;;;;;;;1.45;0.60;;;;;;;-148.56;100.00;61375.16;4981329;28;20030;-31
2021/04/29 06:06:23;;;;;;;0.88;0.55;;;;;;;-148.56;100.00;61375.16;4979878;28;20040;-29
2021/04/29 06:09:46;;;;;;;1.10;0.50;;;;;;;-148.56;100.00;61375.16;4981891;28;20043;-31
2021/04/29 06:13:10;;;;;;;1.70;0.35;;;;;;;-148.56;100.00;61375.16;4981004;28;20473;-25
2021/04/29 06:16:34;;;;;;;1.67;0.50;;;;;;;-148.56;100.00;61375.16;4973453;28;20030;-28
2021/04/29 06:19:58;;;;;;;6.80;1.00;;;;;;;-148.56;100.00;61375.16;4980587;28;20030;-30
2021/04/29 06:23:22;;;;;;;6.55;0.90;;;;;;;-148.56;100.00;61375.16;4978099;28;20022;-26
2021/04/29 06:26:46;;;;;;;1.92;0.65;;;;;;;-148.56;100.00;61375.16;4978259;28;20101;-28
2021/04/29 06:30:10;;;;;;;0.90;0.50;;;;;;;-148.56;100.00;61375.16;4982156;28;20026;-32
2021/04/29 06:33:34;;;;;;;29.30;1.33;;;;;;;-148.56;100.00;61375.16;4970487;28;20125;-26
2021/04/29 06:36:59;;;;;;;15.38;0.93;;;;;;;-148.56;100.00;61375.16;4981852;28;20076;-29
2021/04/29 06:40:25;;;;;;;9.13;1.25;;;;;;;-148.56;100.00;61375.16;4979804;28;20026;-29
2021/04/29 06:43:48;;;;;;;11.98;1.50;;;;;;;-148.56;100.00;61375.16;4970628;28;20041;-26
2021/04/29 06:47:12;;;;;;;6.55;1.00;;;;;;;-148.56;100.00;61375.16;4973702;28;20026;-27
2021/04/29 06:50:39;;;;;;;11.52;1.10;;;;;;;-148.56;100.00;61375.16;4972587;28;20156;-30
2021/04/29 06:54:03;;;;;;;7.40;1.00;;;;;;;-148.56;100.00;61375.16;4975817;28;20156;-28
2021/04/29 06:57:26;;;;;;;1.58;0.95;;;;;;;-148.56;100.00;61375.16;4973984;28;20030;-30
2021/04/29 07:00:50;;;;;;;5.57;1.42;;;;;;;-148.56;100.00;61375.16;4972921;28;20113;-29
2021/04/29 07:04:14;;;;;;;5.22;1.75;;;;;;;-148.56;100.00;61375.16;4972329;28;20062;-26
2021/04/29 07:07:38;;;;;;;3.53;1.00;;;;;;;-148.56;100.00;61375.16;4974463;28;20057;-26
2021/04/29 07:11:03;;;;;;;1.98;0.80;;;;;;;-148.56;100.00;61375.16;4972596;28;20026;-32
2021/04/29 07:14:27;;;;;;;4.88;1.00;;;;;;;-148.56;100.00;61375.16;4976562;28;20304;-27
2021/04/29 07:17:56;;;;;;;5.43;0.80;;;;;;;-148.56;100.00;61375.16;4974315;28;20042;-27
2021/04/29 07:21:20;;;;;;;4.28;0.85;;;;;;;-148.56;100.00;61375.16;4973933;28;20022;-27
2021/04/29 07:24:44;;;;;;;2.40;1.23;;;;;;;-148.56;100.00;61375.16;4970769;28;20034;-28
2021/04/29 07:28:10;;;;;;;4.35;1.05;;;;;;;-148.56;100.00;61375.16;4978247;28;20168;-26
2021/04/29 07:31:34;;;;;;;4.85;1.05;;;;;;;-148.56;100.00;61375.16;4976347;28;20659;-26
2021/04/29 07:34:59;;;;;;;4.47;1.02;;;;;;;-148.56;100.00;61375.16;4974062;28;20060;-30
2021/04/29 07:38:22;;;;;;;3.22;0.68;;;;;;;-148.56;100.00;61375.16;4975360;28;20068;-29
2021/04/29 07:41:46;;;;;;;4.88;0.70;;;;;;;-148.56;100.00;61375.16;4976784;28;20139;-27
2021/04/29 07:45:11;;;;;;;3.42;0.80;;;;;;;-148.56;100.00;61375.16;4974912;28;20026;-25
2021/04/29 07:48:34;;;;;;;6.15;1.17;;;;;;;-148.56;100.00;61375.16;4970825;28;20034;-26
2021/04/29 07:51:58;;;;;;;2.47;1.02;;;;;;;-148.56;100.00;61375.16;4972580;28;20034;-27
2021/04/29 07:55:22;;;;;;;2.78;1.23;;;;;;;-148.56;100.00;61375.16;4976718;28;20101;-30
2021/04/29 07:58:46;;;;;;;4.85;0.95;;;;;;;-148.56;100.00;61375.16;4975349;28;20030;-30
2021/04/29 08:02:10;;;;;;;2.17;0.77;;;;;;;-148.56;100.00;61375.16;4977209;28;20091;-29
2021/04/29 08:05:35;;;;;;;4.20;1.00;;;;;;;-148.56;100.00;61375.16;4983252;28;20038;-26
2021/04/29 08:08:59;;;;;;;17.63;3.72;;;;;;;-148.56;100.00;61375.16;4987808;28;20034;-28
2021/04/29 08:12:23;;;;;;;9.43;4.35;;;;;;;-148.56;100.00;61375.16;4979512;28;20092;-30
2021/04/29 08:15:47;;;;;;;7.03;4.53;;;;;;;-148.56;100.00;61375.16;4980674;28;20030;-27
2021/04/29 08:19:11;;;;;;;4.75;3.20;;;;;;;-148.56;100.00;61375.16;4976703;28;20030;-28
2021/04/29 08:22:35;;;;;;;9.57;2.92;;;;;;;-148.56;100.00;61375.16;4973509;28;20030;-28
2021/04/29 08:25:58;;;;;;;6.10;2.50;;;;;;;-148.56;100.00;61375.16;4974027;28;20738;-30
2021/04/29 08:29:23;;;;;;;7.30;2.53;;;;;;;-148.56;100.00;61375.16;4977975;28;20042;-29
2021/04/29 08:32:47;;;;;;;10.27;1.90;;;;;;;-148.56;100.00;61375.16;4977323;28;20113;-31
2021/04/29 08:36:11;;;;;;;4.70;2.10;;;;;;;-148.56;100.00;61375.16;4981614;28;20038;-22
2021/04/29 08:39:35;;;;;;;7.55;1.95;;;;;;;-148.56;100.00;61375.16;4975988;28;20053;-33
2021/04/29 08:42:59;;;;;;;4.80;2.10;;;;;;;-148.56;100.00;61375.16;4977023;28;20034;-29
2021/04/29 08:45:49;;;;;;;8.05;2.17;;;;;;;26.40;21.99;95753.53;4979298;28;20095;-29
2021/04/29 08:48:16;;;;;;;17.65;2.38;;;;;;;26.66;24.68;95568.66;4989138;28;20034;-31
2021/04/29 08:50:41;;;;;;;14.82;2.30;;;;;;;26.67;24.87;95562.44;4976550;28;20041;-27
2021/04/29 08:53:07;;;;;;;3.38;1.90;;;;;;;26.66;24.97;95556.31;4978461;28;20033;-30
2021/04/29 08:55:36;;;;;;;6.95;2.38;;;;;;;26.67;24.88;95557.19;4983914;28;20034;-28
2021/04/29 08:58:03;;;;;;;4.68;1.98;;;;;;;26.64;24.84;95557.41;4986035;28;20080;-29
2021/04/29 09:00:29;;;;;;;3.60;1.77;;;;;;;26.69;24.83;95561.34;4989061;28;20034;-29
2021/04/29 09:02:55;;;;;;;3.45;2.20;;;;;;;26.71;24.90;95558.63;4987276;28;20034;-26
2021/04/29 09:05:22;;;;;;;5.47;2.03;;;;;;;26.72;24.97;95560.28;4989269;28;20076;-28
2021/04/29 09:08:00;;;;;;;3.88;2.05;;;;;;;26.74;24.98;95563.66;4986967;28;20026;-29
2021/04/29 09:10:33;;;;;;;5.60;2.00;;;;;;;26.75;24.87;95567.94;4986501;28;20026;-28
2021/04/29 09:13:00;;;;;;;5.50;2.22;;;;;;;26.76;24.88;95593.25;4986249;28;20489;-26
2021/04/29 09:15:30;;;;;;;6.57;2.10;;;;;;;26.77;24.98;95594.94;4985674;28;20481;-28
2021/04/29 09:18:05;;;;;;;7.10;2.53;;;;;;;26.77;24.89;95605.44;4985118;28;20026;-28
2021/04/29 09:20:31;;;;;;;7.20;2.25;;;;;;;26.78;24.77;95595.78;4988873;28;20400;-31
2021/04/29 09:22:58;;;;;;;6.32;2.45;;;;;;;26.78;25.02;95590.53;4989226;28;20026;-30
2021/04/29 09:25:23;;;;;;;10.30;2.35;;;;;;;26.80;25.01;95594.72;4988340;28;20026;-27
2021/04/29 09:27:53;;;;;;;5.30;2.30;;;;;;;26.80;24.95;95605.22;4984945;28;20053;-29
2021/04/29 09:30:23;;;;;;;7.70;2.42;;;;;;;26.81;24.93;95606.88;4985426;28;20106;-29
2021/04/29 09:32:48;;;;;;;7.30;2.50;;;;;;;26.80;24.94;95610.47;4982810;28;20073;-31
2021/04/29 09:35:20;;;;;;;5.65;2.25;;;;;;;26.81;24.90;95614.78;4986727;28;20038;-29
2021/04/29 09:37:46;;;;;;;8.65;2.60;;;;;;;26.81;25.04;95599.00;4988431;28;20030;-29
2021/04/29 09:40:28;;;;;;;5.82;1.90;;;;;;;26.81;24.98;95601.63;4986626;28;20568;-27
2021/04/29 09:42:57;;;;;;;5.70;2.22;;;;;;;26.82;24.85;95595.44;4987156;28;20026;-31
2021/04/29 09:45:27;;;;;;;6.45;2.30;;;;;;;26.84;25.00;95595.28;4984834;28;20041;-27
2021/04/29 09:47:54;;;;;;;5.97;1.98;;;;;;;26.83;24.99;95591.84;4985276;28;20030;-28
2021/04/29 09:50:41;;;;;;;6.70;2.25;;;;;;;26.84;24.93;95585.63;4983605;28;20045;-31
2021/04/29 09:53:16;;;;;;;5.22;2.15;;;;;;;26.86;24.99;95573.19;4983533;28;20037;-28
2021/04/29 09:55:45;;;;;;;8.35;2.65;;;;;;;26.84;24.90;95572.50;4985918;28;20030;-26
2021/04/29 09:58:17;;;;;;;3.53;1.83;;;;;;;26.91;24.86;95579.88;4985571;28;20560;-28
2021/04/29 10:00:47;;;;;;;5.25;2.05;;;;;;;26.91;25.01;95572.84;4977773;28;20034;-25
2021/04/29 10:03:13;;;;;;;5.22;1.85;;;;;;;26.93;24.84;95578.00;4987495;28;20050;-28
2021/04/29 10:05:40;;;;;;;4.20;2.05;;;;;;;26.95;24.98;95578.72;4981048;28;20041;-28
2021/04/29 10:08:08;;;;;;;5.57;2.30;;;;;;;26.96;24.95;95577.81;4984069;28;20033;-29
2021/04/29 10:10:34;;;;;;;6.43;2.38;;;;;;;26.97;24.98;95574.22;4986209;28;20162;-27
2021/04/29 10:13:02;;;;;;;4.47;1.90;;;;;;;26.98;24.88;95578.50;4984124;28;20030;-33
2021/04/29 10:15:27;;;;;;;3.67;2.10;;;;;;;27.00;24.97;95573.94;4982407;28;20113;-28
2021/04/29 10:17:53;;;;;;;4.28;2.08;;;;;;;27.01;24.97;95565.13;4989654;28;20121;-28
2021/04/29 10:20:18;;;;;;;4.40;2.15;;;;;;;27.03;24.88;95573.72;4997712;28;20554;-29
2021/04/29 10:22:44;;;;;;;3.72;1.70;;;;;;;27.02;24.97;95572.06;5000169;28;20036;-25
2021/04/29 10:25:10;;;;;;;4.47;1.80;;;;;;;27.04;25.01;95575.38;4973624;28;20041;-29
2021/04/29 10:27:35;;;;;;;5.13;1.70;;;;;;;27.04;24.92;95575.38;4982432;28;20034;-29
2021/04/29 10:30:08;;;;;;;3.53;1.92;;;;;;;27.06;25.00;95576.13;4962444;28;20033;-26
2021/04/29 10:32:34;;;;;;;3.47;1.63;;;;;;;27.07;24.99;95567.28;4985269;28;20029;-28
2021/04/29 10:34:59;;;;;;;3.22;1.73;;;;;;;27.07;24.91;95569.91;4987940;28;20092;-30
2021/04/29 10:37:27;;;;;;;3.75;1.50;;;;;;;27.09;24.96;95567.16;4985705;28;20030;-25
2021/04/29 10:39:56;;;;;;;2.53;1.70;;;;;;;27.10;25.03;95563.56;4986885;28;20026;-29
2021/04/29 10:42:27;;;;;;;3.92;1.85;;;;;;;27.11;25.12;95554.72;4983958;28;20018;-31
2021/04/29 10:44:57;;;;;;;2.30;1.60;;;;;;;27.12;25.04;95567.75;4982285;28;20022;-31
2021/04/29 10:47:26;;;;;;;3.13;1.63;;;;;;;27.13;25.17;95569.44;4982346;28;20310;-29
2021/04/29 10:49:52;;;;;;;4.95;2.08;;;;;;;27.13;25.15;95564.19;4983319;28;20905;-28
2021/04/29 10:52:18;;;;;;;8.38;2.47;;;;;;;27.16;25.25;95564.88;4995710;28;20105;-29
2021/04/29 10:54:50;;;;;;;5.65;2.35;;;;;;;27.15;25.34;95565.84;4976569;28;20044;-30
2021/04/29 10:57:16;;;;;;;12.10;3.20;;;;;;;27.15;25.33;95571.09;4979740;28;20034;-31
2021/04/29 10:59:45;;;;;;;17.38;2.92;;;;;;;27.17;25.36;95569.19;4983406;28;20400;-34
2021/04/29 11:02:27;;;;;;;9.88;2.88;;;;;;;27.18;25.56;95570.84;4967246;28;20429;-28
2021/04/29 11:04:54;;;;;;;8.45;2.30;;;;;;;27.19;25.62;95568.09;4972671;28;20413;-29
2021/04/29 11:07:20;;;;;;;5.78;2.50;;;;;;;27.20;25.59;95569.78;4972815;28;20025;-26
2021/04/29 11:09:59;;;;;;;8.45;2.75;;;;;;;27.21;25.77;95571.47;4975918;28;20040;-30
2021/04/29 11:12:48;;;;;;;5.75;2.38;;;;;;;27.22;25.74;95572.28;4982469;28;20068;-30
2021/04/29 11:15:30;;;;;;;6.57;2.22;;;;;;;27.23;25.83;95563.47;4973293;28;20037;-27
2021/04/29 11:18:22;;;;;;;7.85;2.20;;;;;;;27.24;25.93;95565.13;4977025;28;20053;-28
2021/04/29 11:20:57;;;;;;;7.47;2.15;;;;;;;27.25;25.85;95566.78;4969534;28;20045;-26
2021/04/29 11:23:27;;;;;;;7.72;2.42;;;;;;;27.26;25.95;95571.09;4973416;28;20576;-25
2021/04/29 11:26:13;;;;;;;11.70;2.22;;;;;;;27.27;26.08;95580.66;4981124;28;20037;-29
2021/04/29 11:28:38;;;;;;;7.30;2.20;;;;;;;27.27;26.00;95583.31;4986566;28;20030;-28
2021/04/29 11:31:04;;;;;;;9.65;2.47;;;;;;;27.27;26.04;95594.63;4987919;28;20038;-30
2021/04/29 11:33:36;;;;;;;5.97;2.08;;;;;;;27.27;25.97;95592.00;4983601;28;20037;-30
2021/04/29 11:36:18;;;;;;;15.52;2.50;;;;;;;27.28;26.05;95590.22;4987054;28;20029;-28
2021/04/29 11:39:16;;;;;;;11.65;2.72;;;;;;;27.27;26.12;95591.19;4981156;28;20052;-26
2021/04/29 11:41:41;;;;;;;4.63;2.20;;;;;;;27.29;26.07;95596.31;4980637;28;20042;-30
2021/04/29 11:44:07;;;;;;;8.60;2.20;;;;;;;27.28;25.96;95603.38;4963593;28;20093;-27
2021/04/29 11:46:36;;;;;;;6.15;2.17;;;;;;;27.29;26.04;95586.63;4978536;28;20581;-26
2021/04/29 11:49:02;;;;;;;7.05;2.30;;;;;;;27.29;26.08;95594.53;4981597;28;20037;-28
2021/04/29 11:51:29;;;;;;;8.68;2.55;;;;;;;27.29;26.01;95599.78;4984665;28;20034;-29
2021/04/29 11:54:00;;;;;;;8.07;2.45;;;;;;;27.29;26.06;95583.16;4979733;28;20034;-28
2021/04/29 11:56:35;;;;;;;7.63;2.45;;;;;;;27.29;26.04;95588.41;4990670;28;20022;-31
2021/04/29 11:59:02;;;;;;;6.97;2.00;;;;;;;27.29;26.10;95594.53;4983058;28;20041;-29
2021/04/29 12:01:27;;;;;;;6.15;2.10;;;;;;;27.30;26.14;95606.72;4984913;28;20022;-27
2021/04/29 12:03:53;;;;;;;12.82;2.17;;;;;;;27.31;26.19;95612.81;4979534;28;20049;-27
2021/04/29 12:06:18;;;;;;;10.52;2.00;;;;;;;27.31;26.26;95602.31;4977981;28;20485;-28
2021/04/29 12:08:44;;;;;;;7.13;2.30;;;;;;;27.31;26.26;95618.91;4942261;28;20093;-31
2021/04/29 12:11:12;;;;;;;7.95;2.05;;;;;;;27.30;26.32;95611.97;4969079;28;20029;-28
2021/04/29 12:13:37;;;;;;;8.60;1.70;;;;;;;27.33;26.27;95631.94;4974666;28;20034;-31
2021/04/29 12:16:04;;;;;;;6.10;2.10;;;;;;;27.31;26.50;95626.78;4968733;28;20041;-31
2021/04/29 12:18:29;;;;;;;6.50;1.92;;;;;;;27.30;26.33;95617.22;4937596;28;20050;-28
2021/04/29 12:20:55;;;;;;;5.13;2.00;;;;;;;27.32;26.39;95620.59;4961446;28;22547;-33
2021/04/29 12:23:21;;;;;;;3.67;1.98;;;;;;;27.33;26.42;95650.34;4981703;28;20026;-27
2021/04/29 12:26:00;;;;;;;6.63;1.98;;;;;;;27.34;26.56;95666.03;4966675;28;20117;-30
2021/04/29 12:28:41;;;;;;;7.60;1.92;;;;;;;27.34;26.47;95655.50;4981427;28;20211;-29
2021/04/29 12:32:06;;;;;;;16.02;2.08;;;;;;;-148.56;100.00;61375.16;4975347;28;20038;-27
2021/04/29 12:35:15;;;;;;;10.30;2.13;;;;;;;;;;4986145;28;20033;-29
2021/04/29 12:37:53;;;;;;;7.97;1.85;;;;;;;27.39;26.42;95658.59;4981028;28;20722;-29
2021/04/29 12:40:26;;;;;;;8.77;1.92;;;;;;;27.38;26.49;95667.47;4983996;28;20022;-27
2021/04/29 12:42:51;;;;;;;5.68;1.75;;;;;;;27.35;26.65;95662.44;4983001;28;20022;-28
2021/04/29 12:45:18;;;;;;;4.97;1.73;;;;;;;27.37;26.64;95664.94;4983186;28;20034;-23
2021/04/29 12:47:43;;;;;;;9.18;1.95;;;;;;;27.38;26.68;95666.59;4987249;28;20404;-33
2021/04/29 12:50:10;;;;;;;12.38;2.03;;;;;;;27.37;26.77;95665.78;4962273;28;20046;-29
2021/04/29 12:52:49;;;;;;;6.13;1.80;;;;;;;27.38;26.84;95664.81;4971451;28;20439;-29
2021/04/29 12:55:17;;;;;;;9.25;2.28;;;;;;;27.39;26.85;95669.13;4972596;28;20681;-28
2021/04/29 12:57:42;;;;;;;6.35;2.55;;;;;;;27.38;26.78;95670.09;4983950;28;20030;-28
2021/04/29 13:00:10;;;;;;;8.63;3.50;;;;;;;27.39;26.89;95661.22;4972413;28;20676;-29
2021/04/29 13:03:37;;;;;;;8.80;4.57;;;;;;;-148.56;100.00;61375.16;4984771;28;20105;-27
2021/04/29 13:07:04;;;;;;;10.25;5.88;;;;;;;-148.56;100.00;61375.16;4984151;28;20057;-37
2021/04/29 13:10:32;;;;;;;9.68;6.45;;;;;;;-148.56;100.00;61375.16;4979726;28;20036;-26
2021/04/29 13:14:14;;;;;;;11.93;6.63;;;;;;;-148.56;100.00;61375.16;4987478;28;20041;-26
2021/04/29 13:17:43;;;;;;;12.85;6.40;;;;;;;-148.56;100.00;61375.16;4971819;28;20113;-29
2021/04/29 13:21:07;;;;;;;9.07;5.82;;;;;;;-148.56;100.00;61375.16;4974159;28;20075;-30
2021/04/29 13:24:31;;;;;;;14.35;5.65;;;;;;;-148.56;100.00;61375.16;4972969;28;20030;-27
2021/04/29 13:27:18;;;;;;;13.40;5.80;;;;;;;27.45;27.38;95653.81;4972241;28;20517;-30
2021/04/29 13:29:44;;;;;;;10.80;5.80;;;;;;;27.42;27.44;95672.50;4969890;28;20041;-28
2021/04/29 13:32:34;;;;;;;9.68;5.45;;;;;;;27.42;27.44;95672.50;4976836;28;20408;-29
2021/04/29 13:35:13;;;;;;;8.63;4.93;;;;;;;27.42;27.44;95672.50;4981084;28;20030;-29
2021/04/29 13:38:01;;;;;;;12.32;5.05;;;;;;;-148.56;100.00;61375.16;4976664;28;20030;-28
2021/04/29 13:40:53;;;;;;;9.88;4.78;;;;;;;-148.56;100.00;61375.16;4974956;28;20042;-29
2021/04/29 13:43:19;;;;;;;9.43;4.78;;;;;;;-148.56;100.00;95767.91;4973114;28;20021;-29
2021/04/29 13:45:45;;;;;;;11.77;4.70;;;;;;;-148.56;100.00;61375.16;4973880;28;21181;-29
2021/04/29 13:49:05;;;;;;;7.35;4.28;;;;;;;-148.56;10.90;61375.16;4968841;28;20093;-28
2021/04/29 13:51:30;;;;;;;8.07;4.03;;;;;;;27.50;27.53;95656.94;4971455;28;20060;-28
2021/04/29 13:53:56;;;;;;;9.82;4.30;;;;;;;27.49;27.51;95644.72;4976874;28;20393;-29
2021/04/29 13:56:41;;;;;;;8.57;4.10;;;;;;;27.49;27.51;95644.72;4980158;28;20880;-29
2021/04/29 14:00:07;;;;;;;8.80;3.92;;;;;;;-148.56;100.00;61375.16;4971648;28;20216;-28
2021/04/29 14:03:31;;;;;;;7.85;3.65;;;;;;;-148.56;100.00;61375.16;4961974;28;20117;-29